Decoded Metar for EHGR (GILZE-RIJEN in NETHERLANDS) (IATA:N/A) | Meteo·Mobile Aviation Weather
aviador You're here:

EHGR Decoded Metar

GILZE-RIJEN in NETHERLANDS
Report Time2019-10-21 07:56:00
UTC Time2019-10-21 08:14:45
Flight Rules lifr LIFR
WindVRB at 01 kt
Visibility4600 m
Phenomena:Mist
Clouds:Broken Overcast 003 Hf
Few 004 Hf
Ceiling300 ft
Temp12°C (ISA -3)
Dew Point12°C (100% RH)
QNH1013 hPa
Density Alt-118 ft
Elevation43 ft
Report Wrong Elevation
Raw Report
EHGR 210756Z AUTO VRB01KT 4600 BR OVC003 12/12 Q1013 YLO 14003KT
4500 BR BKN003 BECMG 6000 NSW FEW004 BKN006=

Extra information for EHGR:More info

Metar Taf Metar & Taf Last 4 Metars F.Rules Stats Wind Profile Meteogram Temp Stats Airport Information Weather charts Add Link Nearby VenuesMetar ALERT Operation Metar Decoded Social comments